sensor_id;sensor_type;location;lat;lon;timestamp;P1;durP1;ratioP1;P2;durP2;ratioP2
44434;SDS011;30138;20.964;105.830;2023-02-03T00:03:37;120.30;;;70.82;;
44434;SDS011;30138;20.964;105.830;2023-02-03T00:08:47;113.30;;;67.70;;
44434;SDS011;30138;20.964;105.830;2023-02-03T00:13:59;118.15;;;68.80;;
44434;SDS011;30138;20.964;105.830;2023-02-03T00:19:08;119.03;;;69.60;;
44434;SDS011;30138;20.964;105.830;2023-02-03T00:24:19;113.35;;;67.47;;
44434;SDS011;30138;20.964;105.830;2023-02-03T00:29:27;117.13;;;68.38;;
44434;SDS011;30138;20.964;105.830;2023-02-03T00:34:36;121.00;;;69.80;;
44434;SDS011;30138;20.964;105.830;2023-02-03T00:39:47;124.43;;;71.20;;
44434;SDS011;30138;20.964;105.830;2023-02-03T00:44:56;131.13;;;71.95;;
44434;SDS011;30138;20.964;105.830;2023-02-03T00:50:04;120.68;;;70.50;;
44434;SDS011;30138;20.964;105.830;2023-02-03T00:55:16;129.43;;;69.40;;
44434;SDS011;30138;20.964;105.830;2023-02-03T01:00:24;126.25;;;68.65;;
44434;SDS011;30138;20.964;105.830;2023-02-03T01:05:32;112.30;;;65.35;;
44434;SDS011;30138;20.964;105.830;2023-02-03T01:10:46;108.90;;;61.60;;
44434;SDS011;30138;20.964;105.830;2023-02-03T01:15:55;109.30;;;61.60;;
44434;SDS011;30138;20.964;105.830;2023-02-03T01:21:05;102.10;;;56.53;;
44434;SDS011;30138;20.964;105.830;2023-02-03T01:26:17;103.25;;;57.55;;
44434;SDS011;30138;20.964;105.830;2023-02-03T01:31:29;96.72;;;57.30;;
44434;SDS011;30138;20.964;105.830;2023-02-03T01:36:43;91.05;;;56.75;;
44434;SDS011;30138;20.964;105.830;2023-02-03T01:41:54;96.35;;;56.25;;
44434;SDS011;30138;20.964;105.830;2023-02-03T01:47:03;87.90;;;56.33;;
44434;SDS011;30138;20.964;105.830;2023-02-03T01:52:19;90.95;;;55.33;;
44434;SDS011;30138;20.964;105.830;2023-02-03T01:57:32;88.60;;;56.40;;
44434;SDS011;30138;20.964;105.830;2023-02-03T02:02:45;87.45;;;55.28;;
44434;SDS011;30138;20.964;105.830;2023-02-03T02:07:56;85.43;;;55.45;;
44434;SDS011;30138;20.964;105.830;2023-02-03T02:13:09;94.30;;;57.17;;
44434;SDS011;30138;20.964;105.830;2023-02-03T02:18:24;88.85;;;56.45;;
44434;SDS011;30138;20.964;105.830;2023-02-03T02:23:57;93.47;;;56.45;;
44434;SDS011;30138;20.964;105.830;2023-02-03T02:35:31;90.68;;;55.00;;
44434;SDS011;30138;20.964;105.830;2023-02-03T02:40:59;84.07;;;55.50;;
44434;SDS011;30138;20.964;105.830;2023-02-03T02:46:16;84.80;;;54.35;;
44434;SDS011;30138;20.964;105.830;2023-02-03T02:51:44;79.88;;;53.28;;
44434;SDS011;30138;20.964;105.830;2023-02-03T02:56:58;76.45;;;50.83;;
44434;SDS011;30138;20.964;105.830;2023-02-03T03:02:09;78.77;;;51.80;;
44434;SDS011;30138;20.964;105.830;2023-02-03T03:07:24;73.78;;;49.97;;
44434;SDS011;30138;20.964;105.830;2023-02-03T03:12:42;76.68;;;49.58;;
44434;SDS011;30138;20.964;105.830;2023-02-03T03:18:08;78.15;;;49.55;;
44434;SDS011;30138;20.964;105.830;2023-02-03T03:23:27;1133.40;;;163.45;;
44434;SDS011;30138;20.964;105.830;2023-02-03T03:28:56;1409.10;;;220.55;;
44434;SDS011;30138;20.964;105.830;2023-02-03T03:34:23;1244.20;;;190.70;;
44434;SDS011;30138;20.964;105.830;2023-02-03T03:39:50;798.77;;;129.77;;
44434;SDS011;30138;20.964;105.830;2023-02-03T03:45:18;595.15;;;105.25;;
44434;SDS011;30138;20.964;105.830;2023-02-03T03:50:38;533.40;;;92.68;;
44434;SDS011;30138;20.964;105.830;2023-02-03T03:56:11;442.90;;;85.05;;
44434;SDS011;30138;20.964;105.830;2023-02-03T04:01:32;429.35;;;85.25;;
44434;SDS011;30138;20.964;105.830;2023-02-03T04:06:44;312.33;;;74.13;;
44434;SDS011;30138;20.964;105.830;2023-02-03T04:12:09;280.92;;;71.68;;
44434;SDS011;30138;20.964;105.830;2023-02-03T04:17:33;255.33;;;66.53;;
44434;SDS011;30138;20.964;105.830;2023-02-03T04:23:00;219.70;;;61.92;;
44434;SDS011;30138;20.964;105.830;2023-02-03T04:28:16;168.10;;;56.13;;
44434;SDS011;30138;20.964;105.830;2023-02-03T04:33:39;163.05;;;53.35;;
44434;SDS011;30138;20.964;105.830;2023-02-03T04:38:58;143.35;;;50.83;;
44434;SDS011;30138;20.964;105.830;2023-02-03T04:44:23;132.50;;;50.63;;
44434;SDS011;30138;20.964;105.830;2023-02-03T04:49:42;109.60;;;47.33;;
44434;SDS011;30138;20.964;105.830;2023-02-03T04:54:54;111.75;;;49.75;;
44434;SDS011;30138;20.964;105.830;2023-02-03T05:05:57;104.00;;;46.55;;
44434;SDS011;30138;20.964;105.830;2023-02-03T05:11:22;83.63;;;42.78;;
44434;SDS011;30138;20.964;105.830;2023-02-03T05:22:54;70.22;;;38.42;;
44434;SDS011;30138;20.964;105.830;2023-02-03T05:28:25;69.70;;;38.33;;
44434;SDS011;30138;20.964;105.830;2023-02-03T05:33:58;64.20;;;37.35;;
44434;SDS011;30138;20.964;105.830;2023-02-03T05:39:45;63.15;;;35.28;;
44434;SDS011;30138;20.964;105.830;2023-02-03T05:45:29;63.30;;;35.33;;
44434;SDS011;30138;20.964;105.830;2023-02-03T05:51:05;51.75;;;34.72;;
44434;SDS011;30138;20.964;105.830;2023-02-03T05:56:33;61.50;;;34.47;;
44434;SDS011;30138;20.964;105.830;2023-02-03T06:01:50;56.28;;;33.20;;
44434;SDS011;30138;20.964;105.830;2023-02-03T06:07:09;52.22;;;33.05;;
44434;SDS011;30138;20.964;105.830;2023-02-03T06:12:36;46.47;;;31.98;;
44434;SDS011;30138;20.964;105.830;2023-02-03T06:17:59;45.75;;;29.98;;
44434;SDS011;30138;20.964;105.830;2023-02-03T06:23:21;46.63;;;29.83;;
44434;SDS011;30138;20.964;105.830;2023-02-03T06:28:38;41.03;;;29.77;;
44434;SDS011;30138;20.964;105.830;2023-02-03T06:33:51;44.85;;;29.88;;
44434;SDS011;30138;20.964;105.830;2023-02-03T06:39:12;39.72;;;29.15;;
44434;SDS011;30138;20.964;105.830;2023-02-03T07:02:51;35.33;;;26.73;;
44434;SDS011;30138;20.964;105.830;2023-02-03T07:08:03;37.08;;;26.40;;
44434;SDS011;30138;20.964;105.830;2023-02-03T07:13:14;39.55;;;25.63;;
44434;SDS011;30138;20.964;105.830;2023-02-03T07:41:49;33.33;;;26.20;;
44434;SDS011;30138;20.964;105.830;2023-02-03T07:46:58;39.53;;;27.92;;
44434;SDS011;30138;20.964;105.830;2023-02-03T08:26:07;24.38;;;19.35;;
44434;SDS011;30138;20.964;105.830;2023-02-03T08:31:18;22.45;;;18.10;;
44434;SDS011;30138;20.964;105.830;2023-02-03T08:36:30;23.52;;;17.65;;
44434;SDS011;30138;20.964;105.830;2023-02-03T08:41:49;24.35;;;17.35;;
44434;SDS011;30138;20.964;105.830;2023-02-03T08:46:59;22.45;;;17.90;;
44434;SDS011;30138;20.964;105.830;2023-02-03T08:52:10;29.35;;;20.60;;
44434;SDS011;30138;20.964;105.830;2023-02-03T08:57:30;30.23;;;21.25;;
44434;SDS011;30138;20.964;105.830;2023-02-03T09:03:14;28.58;;;22.38;;
44434;SDS011;30138;20.964;105.830;2023-02-03T09:08:54;27.40;;;22.33;;
44434;SDS011;30138;20.964;105.830;2023-02-03T09:14:03;30.90;;;23.50;;
44434;SDS011;30138;20.964;105.830;2023-02-03T09:19:13;39.85;;;25.17;;
44434;SDS011;30138;20.964;105.830;2023-02-03T09:24:20;55.38;;;31.27;;
44434;SDS011;30138;20.964;105.830;2023-02-03T09:29:35;40.22;;;25.65;;
44434;SDS011;30138;20.964;105.830;2023-02-03T09:35:09;38.20;;;24.58;;
44434;SDS011;30138;20.964;105.830;2023-02-03T09:40:19;33.13;;;24.55;;
44434;SDS011;30138;20.964;105.830;2023-02-03T09:45:33;32.85;;;25.13;;
44434;SDS011;30138;20.964;105.830;2023-02-03T09:50:42;33.15;;;26.40;;
44434;SDS011;30138;20.964;105.830;2023-02-03T09:55:51;34.00;;;26.92;;
44434;SDS011;30138;20.964;105.830;2023-02-03T10:01:13;38.58;;;29.67;;
44434;SDS011;30138;20.964;105.830;2023-02-03T10:06:26;37.20;;;30.10;;
44434;SDS011;30138;20.964;105.830;2023-02-03T10:11:46;80.40;;;52.75;;
44434;SDS011;30138;20.964;105.830;2023-02-03T10:17:20;234.60;;;116.47;;
44434;SDS011;30138;20.964;105.830;2023-02-03T10:22:35;237.93;;;116.60;;
44434;SDS011;30138;20.964;105.830;2023-02-03T10:27:50;158.30;;;82.38;;
44434;SDS011;30138;20.964;105.830;2023-02-03T10:33:10;120.05;;;64.25;;
44434;SDS011;30138;20.964;105.830;2023-02-03T10:38:26;97.30;;;53.47;;
44434;SDS011;30138;20.964;105.830;2023-02-03T10:43:51;82.85;;;48.28;;
44434;SDS011;30138;20.964;105.830;2023-02-03T10:49:08;86.72;;;50.45;;
44434;SDS011;30138;20.964;105.830;2023-02-03T10:54:29;91.75;;;51.47;;
44434;SDS011;30138;20.964;105.830;2023-02-03T10:59:44;78.70;;;48.42;;
44434;SDS011;30138;20.964;105.830;2023-02-03T11:05:16;71.95;;;46.63;;
44434;SDS011;30138;20.964;105.830;2023-02-03T11:10:27;61.20;;;42.33;;
44434;SDS011;30138;20.964;105.830;2023-02-03T11:15:43;67.40;;;42.00;;
44434;SDS011;30138;20.964;105.830;2023-02-03T11:21:01;65.28;;;42.70;;
44434;SDS011;30138;20.964;105.830;2023-02-03T11:26:18;60.47;;;40.90;;
44434;SDS011;30138;20.964;105.830;2023-02-03T11:31:36;58.17;;;40.85;;
44434;SDS011;30138;20.964;105.830;2023-02-03T11:42:40;52.58;;;38.72;;
44434;SDS011;30138;20.964;105.830;2023-02-03T11:48:12;56.92;;;40.05;;
44434;SDS011;30138;20.964;105.830;2023-02-03T11:53:39;54.97;;;40.40;;
44434;SDS011;30138;20.964;105.830;2023-02-03T11:59:16;53.67;;;38.83;;
44434;SDS011;30138;20.964;105.830;2023-02-03T12:05:03;51.75;;;38.60;;
44434;SDS011;30138;20.964;105.830;2023-02-03T12:10:54;50.97;;;37.00;;
44434;SDS011;30138;20.964;105.830;2023-02-03T12:16:22;50.95;;;37.15;;
44434;SDS011;30138;20.964;105.830;2023-02-03T12:22:02;44.83;;;35.38;;
44434;SDS011;30138;20.964;105.830;2023-02-03T12:27:29;50.33;;;36.35;;
44434;SDS011;30138;20.964;105.830;2023-02-03T12:33:03;48.63;;;34.33;;
44434;SDS011;30138;20.964;105.830;2023-02-03T12:38:30;46.92;;;33.33;;
44434;SDS011;30138;20.964;105.830;2023-02-03T12:44:38;50.05;;;33.55;;
44434;SDS011;30138;20.964;105.830;2023-02-03T12:50:36;43.85;;;33.60;;
44434;SDS011;30138;20.964;105.830;2023-02-03T12:56:06;42.00;;;33.40;;
44434;SDS011;30138;20.964;105.830;2023-02-03T13:01:48;41.38;;;31.80;;
44434;SDS011;30138;20.964;105.830;2023-02-03T13:07:33;44.50;;;32.85;;
44434;SDS011;30138;20.964;105.830;2023-02-03T13:13:07;42.75;;;33.35;;
44434;SDS011;30138;20.964;105.830;2023-02-03T13:18:48;43.70;;;32.97;;
44434;SDS011;30138;20.964;105.830;2023-02-03T13:24:34;47.80;;;33.47;;
44434;SDS011;30138;20.964;105.830;2023-02-03T13:41:53;43.55;;;34.33;;
44434;SDS011;30138;20.964;105.830;2023-02-03T13:47:45;46.15;;;33.60;;
44434;SDS011;30138;20.964;105.830;2023-02-03T13:53:23;45.55;;;34.80;;
44434;SDS011;30138;20.964;105.830;2023-02-03T14:17:55;45.40;;;32.35;;
44434;SDS011;30138;20.964;105.830;2023-02-03T14:24:06;42.30;;;33.10;;
44434;SDS011;30138;20.964;105.830;2023-02-03T14:42:06;38.25;;;31.02;;
44434;SDS011;30138;20.964;105.830;2023-02-03T14:48:04;38.78;;;30.42;;
44434;SDS011;30138;20.964;105.830;2023-02-03T15:00:24;37.70;;;29.45;;
44434;SDS011;30138;20.964;105.830;2023-02-03T15:06:27;46.57;;;29.20;;
44434;SDS011;30138;20.964;105.830;2023-02-03T15:11:55;38.08;;;30.38;;
44434;SDS011;30138;20.964;105.830;2023-02-03T15:17:30;34.60;;;29.15;;
44434;SDS011;30138;20.964;105.830;2023-02-03T15:22:59;35.03;;;27.95;;
44434;SDS011;30138;20.964;105.830;2023-02-03T15:28:25;34.63;;;28.17;;
44434;SDS011;30138;20.964;105.830;2023-02-03T15:33:47;35.45;;;29.20;;
44434;SDS011;30138;20.964;105.830;2023-02-03T15:39:21;39.65;;;31.70;;
44434;SDS011;30138;20.964;105.830;2023-02-03T15:44:48;46.38;;;35.42;;
44434;SDS011;30138;20.964;105.830;2023-02-03T15:50:09;45.10;;;33.83;;
44434;SDS011;30138;20.964;105.830;2023-02-03T15:55:45;47.90;;;35.22;;
44434;SDS011;30138;20.964;105.830;2023-02-03T16:01:01;49.63;;;38.30;;
44434;SDS011;30138;20.964;105.830;2023-02-03T16:06:39;52.58;;;36.60;;
44434;SDS011;30138;20.964;105.830;2023-02-03T16:12:13;51.55;;;37.97;;
44434;SDS011;30138;20.964;105.830;2023-02-03T16:17:28;59.25;;;40.47;;
44434;SDS011;30138;20.964;105.830;2023-02-03T16:22:38;56.90;;;40.50;;
44434;SDS011;30138;20.964;105.830;2023-02-03T16:27:56;56.85;;;41.25;;
44434;SDS011;30138;20.964;105.830;2023-02-03T16:33:20;68.63;;;44.33;;
44434;SDS011;30138;20.964;105.830;2023-02-03T16:38:46;67.32;;;45.67;;
44434;SDS011;30138;20.964;105.830;2023-02-03T16:44:12;65.05;;;45.30;;
44434;SDS011;30138;20.964;105.830;2023-02-03T16:49:35;66.13;;;45.00;;
44434;SDS011;30138;20.964;105.830;2023-02-03T16:54:58;71.53;;;46.72;;
44434;SDS011;30138;20.964;105.830;2023-02-03T17:00:11;67.72;;;44.83;;
44434;SDS011;30138;20.964;105.830;2023-02-03T17:05:18;69.03;;;45.90;;
44434;SDS011;30138;20.964;105.830;2023-02-03T17:10:26;73.70;;;44.95;;
44434;SDS011;30138;20.964;105.830;2023-02-03T17:15:39;76.75;;;46.50;;
44434;SDS011;30138;20.964;105.830;2023-02-03T17:20:48;80.13;;;48.42;;
44434;SDS011;30138;20.964;105.830;2023-02-03T17:25:56;80.57;;;48.08;;
44434;SDS011;30138;20.964;105.830;2023-02-03T17:31:06;88.63;;;53.08;;
44434;SDS011;30138;20.964;105.830;2023-02-03T17:36:17;94.38;;;53.80;;
44434;SDS011;30138;20.964;105.830;2023-02-03T17:41:24;96.25;;;52.38;;
44434;SDS011;30138;20.964;105.830;2023-02-03T17:46:34;101.47;;;53.58;;
44434;SDS011;30138;20.964;105.830;2023-02-03T17:51:42;108.53;;;57.40;;
44434;SDS011;30138;20.964;105.830;2023-02-03T17:56:52;112.10;;;58.03;;
44434;SDS011;30138;20.964;105.830;2023-02-03T18:02:02;125.40;;;59.80;;
44434;SDS011;30138;20.964;105.830;2023-02-03T18:07:11;126.85;;;62.50;;
44434;SDS011;30138;20.964;105.830;2023-02-03T18:12:18;141.48;;;63.80;;
44434;SDS011;30138;20.964;105.830;2023-02-03T18:17:29;131.52;;;62.22;;
44434;SDS011;30138;20.964;105.830;2023-02-03T18:22:37;138.32;;;64.20;;
44434;SDS011;30138;20.964;105.830;2023-02-03T18:27:44;143.45;;;65.70;;
44434;SDS011;30138;20.964;105.830;2023-02-03T18:32:57;148.35;;;69.10;;
44434;SDS011;30138;20.964;105.830;2023-02-03T18:38:08;147.93;;;68.78;;
44434;SDS011;30138;20.964;105.830;2023-02-03T18:43:15;149.73;;;69.15;;
44434;SDS011;30138;20.964;105.830;2023-02-03T18:48:23;137.52;;;65.10;;
44434;SDS011;30138;20.964;105.830;2023-02-03T18:53:29;146.07;;;65.72;;
44434;SDS011;30138;20.964;105.830;2023-02-03T18:58:37;146.43;;;65.43;;
44434;SDS011;30138;20.964;105.830;2023-02-03T19:03:46;138.10;;;66.43;;
44434;SDS011;30138;20.964;105.830;2023-02-03T19:08:53;139.32;;;65.75;;
44434;SDS011;30138;20.964;105.830;2023-02-03T19:14:01;134.73;;;63.13;;
44434;SDS011;30138;20.964;105.830;2023-02-03T19:19:11;127.65;;;60.80;;
44434;SDS011;30138;20.964;105.830;2023-02-03T19:24:18;124.82;;;60.25;;
44434;SDS011;30138;20.964;105.830;2023-02-03T19:29:27;120.97;;;60.47;;
44434;SDS011;30138;20.964;105.830;2023-02-03T19:34:36;114.18;;;57.97;;
44434;SDS011;30138;20.964;105.830;2023-02-03T19:39:43;108.07;;;54.65;;
44434;SDS011;30138;20.964;105.830;2023-02-03T19:44:51;98.00;;;51.22;;
44434;SDS011;30138;20.964;105.830;2023-02-03T19:50:01;93.85;;;48.58;;
44434;SDS011;30138;20.964;105.830;2023-02-03T19:55:08;88.15;;;48.95;;
44434;SDS011;30138;20.964;105.830;2023-02-03T20:00:15;90.72;;;49.40;;
44434;SDS011;30138;20.964;105.830;2023-02-03T20:05:25;90.00;;;49.20;;
44434;SDS011;30138;20.964;105.830;2023-02-03T20:10:32;87.35;;;50.38;;
44434;SDS011;30138;20.964;105.830;2023-02-03T20:15:43;83.82;;;48.67;;
44434;SDS011;30138;20.964;105.830;2023-02-03T20:20:52;85.57;;;49.67;;
44434;SDS011;30138;20.964;105.830;2023-02-03T20:26:00;88.28;;;48.65;;
44434;SDS011;30138;20.964;105.830;2023-02-03T20:31:07;80.53;;;47.17;;
44434;SDS011;30138;20.964;105.830;2023-02-03T20:36:19;77.50;;;46.10;;
44434;SDS011;30138;20.964;105.830;2023-02-03T20:41:25;73.18;;;44.58;;
44434;SDS011;30138;20.964;105.830;2023-02-03T20:46:32;73.57;;;45.13;;
44434;SDS011;30138;20.964;105.830;2023-02-03T20:51:42;72.47;;;45.80;;
44434;SDS011;30138;20.964;105.830;2023-02-03T20:56:48;78.72;;;45.85;;
44434;SDS011;30138;20.964;105.830;2023-02-03T21:01:55;77.60;;;47.20;;
44434;SDS011;30138;20.964;105.830;2023-02-03T21:07:12;77.50;;;47.90;;
44434;SDS011;30138;20.964;105.830;2023-02-03T21:12:20;80.07;;;47.67;;
44434;SDS011;30138;20.964;105.830;2023-02-03T21:17:29;79.78;;;46.95;;
44434;SDS011;30138;20.964;105.830;2023-02-03T21:22:42;75.45;;;45.03;;
44434;SDS011;30138;20.964;105.830;2023-02-03T21:27:51;76.40;;;45.80;;
44434;SDS011;30138;20.964;105.830;2023-02-03T21:32:58;79.78;;;47.25;;
44434;SDS011;30138;20.964;105.830;2023-02-03T21:38:24;75.68;;;45.58;;
44434;SDS011;30138;20.964;105.830;2023-02-03T21:43:33;75.88;;;45.75;;
44434;SDS011;30138;20.964;105.830;2023-02-03T21:48:41;71.20;;;44.72;;
44434;SDS011;30138;20.964;105.830;2023-02-03T21:53:55;71.70;;;43.75;;
44434;SDS011;30138;20.964;105.830;2023-02-03T21:59:03;73.35;;;43.80;;
44434;SDS011;30138;20.964;105.830;2023-02-03T22:04:18;76.10;;;45.55;;
44434;SDS011;30138;20.964;105.830;2023-02-03T22:09:28;71.32;;;44.80;;
44434;SDS011;30138;20.964;105.830;2023-02-03T22:14:35;71.07;;;44.40;;
44434;SDS011;30138;20.964;105.830;2023-02-03T22:19:41;79.97;;;46.33;;
44434;SDS011;30138;20.964;105.830;2023-02-03T22:24:50;82.22;;;48.08;;
44434;SDS011;30138;20.964;105.830;2023-02-03T22:29:57;77.65;;;46.15;;
44434;SDS011;30138;20.964;105.830;2023-02-03T22:35:06;80.30;;;47.28;;
44434;SDS011;30138;20.964;105.830;2023-02-03T22:40:14;78.22;;;45.05;;
44434;SDS011;30138;20.964;105.830;2023-02-03T22:45:21;79.32;;;45.75;;
44434;SDS011;30138;20.964;105.830;2023-02-03T22:50:29;72.18;;;44.35;;
44434;SDS011;30138;20.964;105.830;2023-02-03T22:55:39;73.13;;;44.40;;
44434;SDS011;30138;20.964;105.830;2023-02-03T23:00:46;70.22;;;43.78;;
44434;SDS011;30138;20.964;105.830;2023-02-03T23:05:53;71.43;;;44.58;;
44434;SDS011;30138;20.964;105.830;2023-02-03T23:11:02;75.70;;;46.00;;
44434;SDS011;30138;20.964;105.830;2023-02-03T23:16:09;72.93;;;43.75;;
44434;SDS011;30138;20.964;105.830;2023-02-03T23:21:16;76.65;;;46.55;;
44434;SDS011;30138;20.964;105.830;2023-02-03T23:26:24;82.45;;;48.25;;
44434;SDS011;30138;20.964;105.830;2023-02-03T23:31:31;79.05;;;47.28;;
44434;SDS011;30138;20.964;105.830;2023-02-03T23:36:38;79.00;;;46.95;;
44434;SDS011;30138;20.964;105.830;2023-02-03T23:41:47;84.60;;;49.42;;
44434;SDS011;30138;20.964;105.830;2023-02-03T23:46:54;81.43;;;48.72;;
44434;SDS011;30138;20.964;105.830;2023-02-03T23:52:00;79.32;;;48.28;;
44434;SDS011;30138;20.964;105.830;2023-02-03T23:57:09;82.95;;;49.80;;
